sensor_id;sensor_type;location;lat;lon;timestamp;P1;durP1;ratioP1;P2;durP2;ratioP2
26157;SDS011;67284;44.782;10.282;2024-01-10T00:00:52;18.80;;;7.88;;
26157;SDS011;67284;44.782;10.282;2024-01-10T00:05:44;14.45;;;7.57;;
26157;SDS011;67284;44.782;10.282;2024-01-10T00:10:36;14.82;;;7.20;;
26157;SDS011;67284;44.782;10.282;2024-01-10T00:15:28;19.92;;;8.27;;
26157;SDS011;67284;44.782;10.282;2024-01-10T00:20:20;14.23;;;7.75;;
26157;SDS011;67284;44.782;10.282;2024-01-10T00:25:12;16.92;;;8.40;;
26157;SDS011;67284;44.782;10.282;2024-01-10T00:30:04;16.77;;;8.05;;
26157;SDS011;67284;44.782;10.282;2024-01-10T00:34:57;15.68;;;8.07;;
26157;SDS011;67284;44.782;10.282;2024-01-10T00:39:49;16.25;;;8.32;;
26157;SDS011;67284;44.782;10.282;2024-01-10T00:44:40;15.80;;;7.18;;
26157;SDS011;67284;44.782;10.282;2024-01-10T00:49:33;16.38;;;7.82;;
26157;SDS011;67284;44.782;10.282;2024-01-10T00:54:24;17.85;;;6.93;;
26157;SDS011;67284;44.782;10.282;2024-01-10T00:59:16;16.63;;;7.63;;
26157;SDS011;67284;44.782;10.282;2024-01-10T01:04:08;15.07;;;7.60;;
26157;SDS011;67284;44.782;10.282;2024-01-10T01:09:00;15.07;;;8.85;;
26157;SDS011;67284;44.782;10.282;2024-01-10T01:13:52;14.60;;;8.00;;
26157;SDS011;67284;44.782;10.282;2024-01-10T01:18:44;14.20;;;7.50;;
26157;SDS011;67284;44.782;10.282;2024-01-10T01:23:37;19.38;;;8.15;;
26157;SDS011;67284;44.782;10.282;2024-01-10T01:28:33;15.18;;;7.53;;
26157;SDS011;67284;44.782;10.282;2024-01-10T01:33:25;19.08;;;8.40;;
26157;SDS011;67284;44.782;10.282;2024-01-10T01:38:17;14.23;;;8.02;;
26157;SDS011;67284;44.782;10.282;2024-01-10T01:43:19;19.50;;;9.30;;
26157;SDS011;67284;44.782;10.282;2024-01-10T01:48:13;22.33;;;10.13;;
26157;SDS011;67284;44.782;10.282;2024-01-10T01:53:05;21.38;;;10.32;;
26157;SDS011;67284;44.782;10.282;2024-01-10T01:57:57;20.38;;;10.38;;
26157;SDS011;67284;44.782;10.282;2024-01-10T02:02:49;17.15;;;9.82;;
26157;SDS011;67284;44.782;10.282;2024-01-10T02:07:44;19.58;;;10.65;;
26157;SDS011;67284;44.782;10.282;2024-01-10T02:12:36;21.40;;;9.88;;
26157;SDS011;67284;44.782;10.282;2024-01-10T02:17:28;18.30;;;10.07;;
26157;SDS011;67284;44.782;10.282;2024-01-10T02:22:19;20.20;;;9.82;;
26157;SDS011;67284;44.782;10.282;2024-01-10T02:27:11;21.63;;;9.90;;
26157;SDS011;67284;44.782;10.282;2024-01-10T02:32:03;17.73;;;9.00;;
26157;SDS011;67284;44.782;10.282;2024-01-10T02:36:55;15.93;;;9.35;;
26157;SDS011;67284;44.782;10.282;2024-01-10T02:41:48;17.40;;;9.98;;
26157;SDS011;67284;44.782;10.282;2024-01-10T02:46:40;13.88;;;8.40;;
26157;SDS011;67284;44.782;10.282;2024-01-10T02:51:32;18.58;;;9.35;;
26157;SDS011;67284;44.782;10.282;2024-01-10T02:56:24;19.88;;;9.52;;
26157;SDS011;67284;44.782;10.282;2024-01-10T03:01:16;17.48;;;9.10;;
26157;SDS011;67284;44.782;10.282;2024-01-10T03:06:08;16.10;;;8.95;;
26157;SDS011;67284;44.782;10.282;2024-01-10T03:11:00;19.83;;;10.25;;
26157;SDS011;67284;44.782;10.282;2024-01-10T03:15:52;16.45;;;9.40;;
26157;SDS011;67284;44.782;10.282;2024-01-10T03:20:44;20.60;;;9.90;;
26157;SDS011;67284;44.782;10.282;2024-01-10T03:25:35;19.08;;;9.10;;
26157;SDS011;67284;44.782;10.282;2024-01-10T03:30:27;14.63;;;8.85;;
26157;SDS011;67284;44.782;10.282;2024-01-10T03:35:19;14.32;;;9.75;;
26157;SDS011;67284;44.782;10.282;2024-01-10T03:40:11;26.73;;;9.73;;
26157;SDS011;67284;44.782;10.282;2024-01-10T03:45:04;15.90;;;10.23;;
26157;SDS011;67284;44.782;10.282;2024-01-10T03:49:56;20.40;;;9.05;;
26157;SDS011;67284;44.782;10.282;2024-01-10T03:54:49;18.95;;;10.35;;
26157;SDS011;67284;44.782;10.282;2024-01-10T03:59:40;23.30;;;10.23;;
26157;SDS011;67284;44.782;10.282;2024-01-10T04:04:32;16.65;;;8.65;;
26157;SDS011;67284;44.782;10.282;2024-01-10T04:09:24;22.48;;;9.57;;
26157;SDS011;67284;44.782;10.282;2024-01-10T04:14:16;18.05;;;9.93;;
26157;SDS011;67284;44.782;10.282;2024-01-10T04:19:08;17.98;;;10.52;;
26157;SDS011;67284;44.782;10.282;2024-01-10T04:24:00;18.25;;;9.82;;
26157;SDS011;67284;44.782;10.282;2024-01-10T04:28:51;16.50;;;9.13;;
26157;SDS011;67284;44.782;10.282;2024-01-10T04:33:43;19.10;;;10.30;;
26157;SDS011;67284;44.782;10.282;2024-01-10T04:38:35;14.50;;;9.45;;
26157;SDS011;67284;44.782;10.282;2024-01-10T04:43:27;16.27;;;9.93;;
26157;SDS011;67284;44.782;10.282;2024-01-10T04:48:19;16.38;;;9.93;;
26157;SDS011;67284;44.782;10.282;2024-01-10T04:53:11;17.77;;;9.23;;
26157;SDS011;67284;44.782;10.282;2024-01-10T04:58:02;17.23;;;8.77;;
26157;SDS011;67284;44.782;10.282;2024-01-10T05:02:54;17.02;;;9.52;;
26157;SDS011;67284;44.782;10.282;2024-01-10T05:07:46;16.38;;;9.30;;
26157;SDS011;67284;44.782;10.282;2024-01-10T05:12:38;15.02;;;8.80;;
26157;SDS011;67284;44.782;10.282;2024-01-10T05:17:30;20.00;;;9.27;;
26157;SDS011;67284;44.782;10.282;2024-01-10T05:22:22;17.42;;;9.68;;
26157;SDS011;67284;44.782;10.282;2024-01-10T05:27:14;20.50;;;9.43;;
26157;SDS011;67284;44.782;10.282;2024-01-10T05:32:06;16.85;;;8.52;;
26157;SDS011;67284;44.782;10.282;2024-01-10T05:36:58;17.20;;;7.97;;
26157;SDS011;67284;44.782;10.282;2024-01-10T05:41:50;17.65;;;9.57;;
26157;SDS011;67284;44.782;10.282;2024-01-10T05:46:42;17.13;;;8.70;;
26157;SDS011;67284;44.782;10.282;2024-01-10T05:51:34;17.33;;;8.07;;
26157;SDS011;67284;44.782;10.282;2024-01-10T05:56:26;14.63;;;8.10;;
26157;SDS011;67284;44.782;10.282;2024-01-10T06:01:19;15.50;;;8.95;;
26157;SDS011;67284;44.782;10.282;2024-01-10T06:06:11;16.85;;;8.20;;
26157;SDS011;67284;44.782;10.282;2024-01-10T06:11:03;13.38;;;7.53;;
26157;SDS011;67284;44.782;10.282;2024-01-10T06:15:57;15.45;;;8.93;;
26157;SDS011;67284;44.782;10.282;2024-01-10T06:20:49;15.95;;;8.77;;
26157;SDS011;67284;44.782;10.282;2024-01-10T06:25:41;16.50;;;8.27;;
26157;SDS011;67284;44.782;10.282;2024-01-10T06:30:33;13.60;;;7.10;;
26157;SDS011;67284;44.782;10.282;2024-01-10T06:35:26;22.08;;;8.80;;
26157;SDS011;67284;44.782;10.282;2024-01-10T06:40:18;16.05;;;7.70;;
26157;SDS011;67284;44.782;10.282;2024-01-10T06:45:13;19.00;;;8.65;;
26157;SDS011;67284;44.782;10.282;2024-01-10T06:50:06;15.90;;;8.48;;
26157;SDS011;67284;44.782;10.282;2024-01-10T06:55:00;19.35;;;9.02;;
26157;SDS011;67284;44.782;10.282;2024-01-10T06:59:52;17.98;;;9.52;;
26157;SDS011;67284;44.782;10.282;2024-01-10T07:04:44;19.50;;;9.32;;
26157;SDS011;67284;44.782;10.282;2024-01-10T07:09:39;21.20;;;11.02;;
26157;SDS011;67284;44.782;10.282;2024-01-10T07:14:32;17.60;;;9.18;;
26157;SDS011;67284;44.782;10.282;2024-01-10T07:19:24;19.42;;;9.15;;
26157;SDS011;67284;44.782;10.282;2024-01-10T07:24:16;24.15;;;9.77;;
26157;SDS011;67284;44.782;10.282;2024-01-10T07:29:08;17.92;;;8.98;;
26157;SDS011;67284;44.782;10.282;2024-01-10T07:34:00;22.20;;;9.27;;
26157;SDS011;67284;44.782;10.282;2024-01-10T07:38:52;19.08;;;10.00;;
26157;SDS011;67284;44.782;10.282;2024-01-10T07:43:44;19.35;;;9.90;;
26157;SDS011;67284;44.782;10.282;2024-01-10T07:48:36;19.20;;;10.23;;
26157;SDS011;67284;44.782;10.282;2024-01-10T07:53:29;25.98;;;11.95;;
26157;SDS011;67284;44.782;10.282;2024-01-10T07:58:22;20.55;;;10.75;;
26157;SDS011;67284;44.782;10.282;2024-01-10T08:03:14;20.23;;;9.85;;
26157;SDS011;67284;44.782;10.282;2024-01-10T08:08:07;17.67;;;9.70;;
26157;SDS011;67284;44.782;10.282;2024-01-10T08:12:59;22.55;;;10.93;;
26157;SDS011;67284;44.782;10.282;2024-01-10T08:17:51;22.38;;;11.25;;
26157;SDS011;67284;44.782;10.282;2024-01-10T08:22:44;22.45;;;10.32;;
26157;SDS011;67284;44.782;10.282;2024-01-10T08:27:40;20.63;;;10.30;;
26157;SDS011;67284;44.782;10.282;2024-01-10T08:32:35;20.15;;;9.90;;
26157;SDS011;67284;44.782;10.282;2024-01-10T08:37:28;22.63;;;10.35;;
26157;SDS011;67284;44.782;10.282;2024-01-10T08:42:20;18.13;;;10.75;;
26157;SDS011;67284;44.782;10.282;2024-01-10T08:47:12;20.50;;;10.68;;
26157;SDS011;67284;44.782;10.282;2024-01-10T08:52:04;18.48;;;11.07;;
26157;SDS011;67284;44.782;10.282;2024-01-10T08:56:56;20.65;;;12.07;;
26157;SDS011;67284;44.782;10.282;2024-01-10T09:01:48;24.35;;;11.48;;
26157;SDS011;67284;44.782;10.282;2024-01-10T09:06:40;25.48;;;13.05;;
26157;SDS011;67284;44.782;10.282;2024-01-10T09:11:32;24.10;;;11.70;;
26157;SDS011;67284;44.782;10.282;2024-01-10T09:16:30;25.52;;;11.55;;
26157;SDS011;67284;44.782;10.282;2024-01-10T09:21:22;25.88;;;12.38;;
26157;SDS011;67284;44.782;10.282;2024-01-10T09:26:13;20.45;;;10.98;;
26157;SDS011;67284;44.782;10.282;2024-01-10T09:31:05;25.83;;;11.90;;
26157;SDS011;67284;44.782;10.282;2024-01-10T09:35:58;19.48;;;11.50;;
26157;SDS011;67284;44.782;10.282;2024-01-10T09:40:52;26.15;;;12.18;;
26157;SDS011;67284;44.782;10.282;2024-01-10T09:45:53;18.55;;;10.18;;
26157;SDS011;67284;44.782;10.282;2024-01-10T09:50:46;28.65;;;12.93;;
26157;SDS011;67284;44.782;10.282;2024-01-10T09:55:41;22.95;;;12.00;;
26157;SDS011;67284;44.782;10.282;2024-01-10T10:00:34;23.30;;;11.05;;
26157;SDS011;67284;44.782;10.282;2024-01-10T10:05:28;23.25;;;11.02;;
26157;SDS011;67284;44.782;10.282;2024-01-10T10:10:20;27.60;;;11.32;;
26157;SDS011;67284;44.782;10.282;2024-01-10T10:15:15;26.33;;;12.10;;
26157;SDS011;67284;44.782;10.282;2024-01-10T10:20:09;23.70;;;10.65;;
26157;SDS011;67284;44.782;10.282;2024-01-10T10:25:01;22.23;;;10.82;;
26157;SDS011;67284;44.782;10.282;2024-01-10T10:29:53;21.40;;;9.95;;
26157;SDS011;67284;44.782;10.282;2024-01-10T10:34:45;19.88;;;9.85;;
26157;SDS011;67284;44.782;10.282;2024-01-10T10:39:37;17.20;;;10.20;;
26157;SDS011;67284;44.782;10.282;2024-01-10T10:44:29;14.30;;;8.68;;
26157;SDS011;67284;44.782;10.282;2024-01-10T10:49:28;13.32;;;8.77;;
26157;SDS011;67284;44.782;10.282;2024-01-10T10:54:25;15.98;;;8.73;;
26157;SDS011;67284;44.782;10.282;2024-01-10T10:59:24;21.00;;;10.23;;
26157;SDS011;67284;44.782;10.282;2024-01-10T11:04:18;15.27;;;8.57;;
26157;SDS011;67284;44.782;10.282;2024-01-10T11:09:12;14.88;;;8.93;;
26157;SDS011;67284;44.782;10.282;2024-01-10T11:24:20;12.27;;;8.07;;
26157;SDS011;67284;44.782;10.282;2024-01-10T11:29:12;18.27;;;8.98;;
26157;SDS011;67284;44.782;10.282;2024-01-10T11:34:04;15.77;;;8.63;;
26157;SDS011;67284;44.782;10.282;2024-01-10T11:39:01;20.20;;;9.65;;
26157;SDS011;67284;44.782;10.282;2024-01-10T11:49:09;15.23;;;8.68;;
26157;SDS011;67284;44.782;10.282;2024-01-10T11:54:06;22.70;;;10.05;;
26157;SDS011;67284;44.782;10.282;2024-01-10T11:59:01;16.13;;;8.98;;
26157;SDS011;67284;44.782;10.282;2024-01-10T12:03:57;22.00;;;9.52;;
26157;SDS011;67284;44.782;10.282;2024-01-10T12:09:05;22.05;;;9.73;;
26157;SDS011;67284;44.782;10.282;2024-01-10T12:14:01;16.70;;;9.43;;
26157;SDS011;67284;44.782;10.282;2024-01-10T12:18:54;19.08;;;9.82;;
26157;SDS011;67284;44.782;10.282;2024-01-10T12:23:45;19.90;;;10.20;;
26157;SDS011;67284;44.782;10.282;2024-01-10T12:28:39;18.00;;;9.30;;
26157;SDS011;67284;44.782;10.282;2024-01-10T12:33:31;16.95;;;9.00;;
26157;SDS011;67284;44.782;10.282;2024-01-10T12:38:24;15.55;;;8.65;;
26157;SDS011;67284;44.782;10.282;2024-01-10T12:43:17;19.88;;;9.30;;
26157;SDS011;67284;44.782;10.282;2024-01-10T12:48:13;21.08;;;10.27;;
26157;SDS011;67284;44.782;10.282;2024-01-10T12:53:09;15.80;;;7.85;;
26157;SDS011;67284;44.782;10.282;2024-01-10T12:58:01;20.33;;;9.77;;
26157;SDS011;67284;44.782;10.282;2024-01-10T13:02:58;16.80;;;9.02;;
26157;SDS011;67284;44.782;10.282;2024-01-10T13:07:50;15.75;;;9.10;;
26157;SDS011;67284;44.782;10.282;2024-01-10T13:12:43;18.42;;;9.57;;
26157;SDS011;67284;44.782;10.282;2024-01-10T13:17:36;15.75;;;8.93;;
26157;SDS011;67284;44.782;10.282;2024-01-10T13:22:29;20.42;;;9.90;;
26157;SDS011;67284;44.782;10.282;2024-01-10T13:27:21;17.58;;;9.10;;
26157;SDS011;67284;44.782;10.282;2024-01-10T13:32:13;16.98;;;8.75;;
26157;SDS011;67284;44.782;10.282;2024-01-10T13:37:07;19.50;;;10.15;;
26157;SDS011;67284;44.782;10.282;2024-01-10T13:42:01;23.27;;;9.93;;
26157;SDS011;67284;44.782;10.282;2024-01-10T13:46:53;17.25;;;9.25;;
26157;SDS011;67284;44.782;10.282;2024-01-10T13:51:45;22.13;;;10.35;;
26157;SDS011;67284;44.782;10.282;2024-01-10T13:56:37;16.70;;;9.05;;
26157;SDS011;67284;44.782;10.282;2024-01-10T14:01:31;21.40;;;9.73;;
26157;SDS011;67284;44.782;10.282;2024-01-10T14:06:23;15.75;;;9.40;;
26157;SDS011;67284;44.782;10.282;2024-01-10T14:11:15;19.15;;;10.10;;
26157;SDS011;67284;44.782;10.282;2024-01-10T14:16:07;19.35;;;9.57;;
26157;SDS011;67284;44.782;10.282;2024-01-10T14:20:59;17.35;;;8.45;;
26157;SDS011;67284;44.782;10.282;2024-01-10T14:25:50;20.02;;;9.50;;
26157;SDS011;67284;44.782;10.282;2024-01-10T14:30:45;16.52;;;9.18;;
26157;SDS011;67284;44.782;10.282;2024-01-10T14:35:36;19.65;;;9.65;;
26157;SDS011;67284;44.782;10.282;2024-01-10T14:40:28;18.70;;;9.02;;
26157;SDS011;67284;44.782;10.282;2024-01-10T14:45:20;19.58;;;9.23;;
26157;SDS011;67284;44.782;10.282;2024-01-10T14:50:12;15.82;;;8.75;;
26157;SDS011;67284;44.782;10.282;2024-01-10T14:55:04;17.08;;;8.77;;
26157;SDS011;67284;44.782;10.282;2024-01-10T14:59:56;14.35;;;7.22;;
26157;SDS011;67284;44.782;10.282;2024-01-10T15:04:48;14.70;;;9.10;;
26157;SDS011;67284;44.782;10.282;2024-01-10T15:09:41;18.65;;;8.45;;
26157;SDS011;67284;44.782;10.282;2024-01-10T15:14:34;18.60;;;9.25;;
26157;SDS011;67284;44.782;10.282;2024-01-10T15:19:27;19.63;;;8.98;;
26157;SDS011;67284;44.782;10.282;2024-01-10T15:24:19;21.15;;;8.63;;
26157;SDS011;67284;44.782;10.282;2024-01-10T15:29:13;15.02;;;8.80;;
26157;SDS011;67284;44.782;10.282;2024-01-10T15:34:05;21.45;;;9.50;;
26157;SDS011;67284;44.782;10.282;2024-01-10T15:38:58;16.73;;;8.75;;
26157;SDS011;67284;44.782;10.282;2024-01-10T15:43:49;19.48;;;9.23;;
26157;SDS011;67284;44.782;10.282;2024-01-10T15:48:41;21.10;;;9.18;;
26157;SDS011;67284;44.782;10.282;2024-01-10T15:53:33;19.10;;;9.77;;
26157;SDS011;67284;44.782;10.282;2024-01-10T15:58:26;18.65;;;10.00;;
26157;SDS011;67284;44.782;10.282;2024-01-10T16:03:19;15.18;;;8.35;;
26157;SDS011;67284;44.782;10.282;2024-01-10T16:08:12;22.85;;;10.63;;
26157;SDS011;67284;44.782;10.282;2024-01-10T16:13:04;16.80;;;9.52;;
26157;SDS011;67284;44.782;10.282;2024-01-10T16:17:56;14.40;;;9.52;;
26157;SDS011;67284;44.782;10.282;2024-01-10T16:22:48;21.05;;;10.60;;
26157;SDS011;67284;44.782;10.282;2024-01-10T16:27:40;23.02;;;12.45;;
26157;SDS011;67284;44.782;10.282;2024-01-10T16:32:32;31.75;;;15.73;;
26157;SDS011;67284;44.782;10.282;2024-01-10T16:37:24;22.40;;;13.07;;
26157;SDS011;67284;44.782;10.282;2024-01-10T16:42:16;23.10;;;11.75;;
26157;SDS011;67284;44.782;10.282;2024-01-10T16:47:07;21.10;;;11.40;;
26157;SDS011;67284;44.782;10.282;2024-01-10T16:52:00;26.42;;;11.63;;
26157;SDS011;67284;44.782;10.282;2024-01-10T16:56:52;24.95;;;11.35;;
26157;SDS011;67284;44.782;10.282;2024-01-10T17:01:44;27.83;;;12.88;;
26157;SDS011;67284;44.782;10.282;2024-01-10T17:06:36;19.70;;;11.93;;
26157;SDS011;67284;44.782;10.282;2024-01-10T17:11:28;23.10;;;12.00;;
26157;SDS011;67284;44.782;10.282;2024-01-10T17:16:20;23.73;;;12.93;;
26157;SDS011;67284;44.782;10.282;2024-01-10T17:21:12;25.70;;;12.00;;
26157;SDS011;67284;44.782;10.282;2024-01-10T17:26:04;23.10;;;11.73;;
26157;SDS011;67284;44.782;10.282;2024-01-10T17:30:56;24.55;;;11.48;;
26157;SDS011;67284;44.782;10.282;2024-01-10T17:35:48;20.77;;;10.00;;
26157;SDS011;67284;44.782;10.282;2024-01-10T17:40:40;23.42;;;10.95;;
26157;SDS011;67284;44.782;10.282;2024-01-10T17:45:31;21.45;;;11.07;;
26157;SDS011;67284;44.782;10.282;2024-01-10T17:50:23;21.35;;;11.93;;
26157;SDS011;67284;44.782;10.282;2024-01-10T17:55:17;22.50;;;12.32;;
26157;SDS011;67284;44.782;10.282;2024-01-10T18:00:09;32.42;;;13.07;;
26157;SDS011;67284;44.782;10.282;2024-01-10T18:05:04;26.92;;;12.82;;
26157;SDS011;67284;44.782;10.282;2024-01-10T18:09:56;24.63;;;13.98;;
26157;SDS011;67284;44.782;10.282;2024-01-10T18:14:48;25.92;;;13.98;;
26157;SDS011;67284;44.782;10.282;2024-01-10T18:19:41;29.20;;;14.80;;
26157;SDS011;67284;44.782;10.282;2024-01-10T18:24:35;24.30;;;14.25;;
26157;SDS011;67284;44.782;10.282;2024-01-10T18:29:27;27.05;;;15.05;;
26157;SDS011;67284;44.782;10.282;2024-01-10T18:34:19;28.98;;;14.25;;
26157;SDS011;67284;44.782;10.282;2024-01-10T18:39:11;27.27;;;13.95;;
26157;SDS011;67284;44.782;10.282;2024-01-10T18:44:04;30.63;;;14.93;;
26157;SDS011;67284;44.782;10.282;2024-01-10T18:48:56;33.33;;;15.65;;
26157;SDS011;67284;44.782;10.282;2024-01-10T18:53:48;31.23;;;15.15;;
26157;SDS011;67284;44.782;10.282;2024-01-10T18:58:40;27.08;;;14.45;;
26157;SDS011;67284;44.782;10.282;2024-01-10T19:03:32;27.75;;;14.13;;
26157;SDS011;67284;44.782;10.282;2024-01-10T19:08:24;25.10;;;14.65;;
26157;SDS011;67284;44.782;10.282;2024-01-10T19:13:16;28.60;;;15.18;;
26157;SDS011;67284;44.782;10.282;2024-01-10T19:18:08;26.15;;;14.80;;
26157;SDS011;67284;44.782;10.282;2024-01-10T19:23:01;27.08;;;14.63;;
26157;SDS011;67284;44.782;10.282;2024-01-10T19:27:56;32.92;;;16.33;;
26157;SDS011;67284;44.782;10.282;2024-01-10T19:32:48;27.20;;;16.13;;
26157;SDS011;67284;44.782;10.282;2024-01-10T19:37:42;35.75;;;18.40;;
26157;SDS011;67284;44.782;10.282;2024-01-10T19:42:34;29.20;;;16.45;;
26157;SDS011;67284;44.782;10.282;2024-01-10T19:47:27;28.45;;;16.23;;
26157;SDS011;67284;44.782;10.282;2024-01-10T19:52:20;33.17;;;17.25;;
26157;SDS011;67284;44.782;10.282;2024-01-10T19:57:11;35.13;;;17.88;;
26157;SDS011;67284;44.782;10.282;2024-01-10T20:02:03;36.50;;;18.30;;
26157;SDS011;67284;44.782;10.282;2024-01-10T20:07:01;29.93;;;17.73;;
26157;SDS011;67284;44.782;10.282;2024-01-10T20:11:54;30.48;;;16.05;;
26157;SDS011;67284;44.782;10.282;2024-01-10T20:16:46;31.63;;;16.85;;
26157;SDS011;67284;44.782;10.282;2024-01-10T20:21:38;36.60;;;18.83;;
26157;SDS011;67284;44.782;10.282;2024-01-10T20:26:30;36.38;;;19.17;;
26157;SDS011;67284;44.782;10.282;2024-01-10T20:31:22;31.80;;;16.02;;
26157;SDS011;67284;44.782;10.282;2024-01-10T20:36:14;38.80;;;16.55;;
26157;SDS011;67284;44.782;10.282;2024-01-10T20:41:06;28.17;;;15.98;;
26157;SDS011;67284;44.782;10.282;2024-01-10T20:45:58;27.70;;;14.68;;
26157;SDS011;67284;44.782;10.282;2024-01-10T20:50:50;25.63;;;14.70;;
26157;SDS011;67284;44.782;10.282;2024-01-10T20:55:42;29.27;;;15.48;;
26157;SDS011;67284;44.782;10.282;2024-01-10T21:00:35;28.08;;;15.63;;
26157;SDS011;67284;44.782;10.282;2024-01-10T21:05:27;27.50;;;14.45;;
26157;SDS011;67284;44.782;10.282;2024-01-10T21:10:19;27.13;;;14.82;;
26157;SDS011;67284;44.782;10.282;2024-01-10T21:15:11;36.75;;;17.05;;
26157;SDS011;67284;44.782;10.282;2024-01-10T21:20:04;33.15;;;15.35;;
26157;SDS011;67284;44.782;10.282;2024-01-10T21:24:56;35.25;;;16.73;;
26157;SDS011;67284;44.782;10.282;2024-01-10T21:29:48;28.13;;;16.05;;
26157;SDS011;67284;44.782;10.282;2024-01-10T21:34:40;31.45;;;15.90;;
26157;SDS011;67284;44.782;10.282;2024-01-10T21:39:32;30.92;;;17.77;;
26157;SDS011;67284;44.782;10.282;2024-01-10T21:44:24;28.83;;;16.95;;
26157;SDS011;67284;44.782;10.282;2024-01-10T21:49:16;34.05;;;16.17;;
26157;SDS011;67284;44.782;10.282;2024-01-10T21:54:08;33.17;;;16.35;;
26157;SDS011;67284;44.782;10.282;2024-01-10T21:59:00;29.77;;;14.73;;
26157;SDS011;67284;44.782;10.282;2024-01-10T22:03:51;29.50;;;15.60;;
26157;SDS011;67284;44.782;10.282;2024-01-10T22:08:44;27.35;;;14.70;;
26157;SDS011;67284;44.782;10.282;2024-01-10T22:13:36;27.55;;;16.17;;
26157;SDS011;67284;44.782;10.282;2024-01-10T22:18:29;28.15;;;14.48;;
26157;SDS011;67284;44.782;10.282;2024-01-10T22:23:21;26.48;;;14.35;;
26157;SDS011;67284;44.782;10.282;2024-01-10T22:28:14;27.27;;;14.38;;
26157;SDS011;67284;44.782;10.282;2024-01-10T22:33:05;26.67;;;12.48;;
26157;SDS011;67284;44.782;10.282;2024-01-10T22:37:57;24.40;;;13.70;;
26157;SDS011;67284;44.782;10.282;2024-01-10T22:42:49;29.40;;;15.15;;
26157;SDS011;67284;44.782;10.282;2024-01-10T22:47:43;30.73;;;16.30;;
26157;SDS011;67284;44.782;10.282;2024-01-10T22:52:35;28.00;;;14.82;;
26157;SDS011;67284;44.782;10.282;2024-01-10T22:57:27;28.73;;;15.57;;
26157;SDS011;67284;44.782;10.282;2024-01-10T23:02:19;29.15;;;15.60;;
26157;SDS011;67284;44.782;10.282;2024-01-10T23:07:11;33.88;;;16.50;;
26157;SDS011;67284;44.782;10.282;2024-01-10T23:12:04;27.70;;;16.00;;
26157;SDS011;67284;44.782;10.282;2024-01-10T23:16:56;27.42;;;13.82;;
26157;SDS011;67284;44.782;10.282;2024-01-10T23:21:48;29.83;;;15.95;;
26157;SDS011;67284;44.782;10.282;2024-01-10T23:26:40;28.50;;;16.13;;
26157;SDS011;67284;44.782;10.282;2024-01-10T23:31:32;26.40;;;14.57;;
26157;SDS011;67284;44.782;10.282;2024-01-10T23:36:23;32.75;;;14.15;;
26157;SDS011;67284;44.782;10.282;2024-01-10T23:41:15;34.53;;;15.45;;
26157;SDS011;67284;44.782;10.282;2024-01-10T23:46:07;28.23;;;14.88;;
26157;SDS011;67284;44.782;10.282;2024-01-10T23:50:59;31.30;;;17.02;;
26157;SDS011;67284;44.782;10.282;2024-01-10T23:55:51;27.73;;;15.88;;
